sensor_id;sensor_type;location;lat;lon;timestamp;pressure;altitude;pressure_sealevel;temperature;humidity
37848;BME280;23688;33.130;-117.188;2022-11-15T00:00:55;99770.44;;;17.30;52.25
37848;BME280;23688;33.130;-117.188;2022-11-15T00:03:24;99777.31;;;17.23;55.26
37848;BME280;23688;33.130;-117.188;2022-11-15T00:05:50;99776.59;;;17.30;57.43
37848;BME280;23688;33.130;-117.188;2022-11-15T00:08:17;99773.69;;;17.17;62.90
37848;BME280;23688;33.130;-117.188;2022-11-15T00:10:54;99774.34;;;17.05;65.25
37848;BME280;23688;33.130;-117.188;2022-11-15T00:13:20;99776.91;;;17.02;65.85
37848;BME280;23688;33.130;-117.188;2022-11-15T00:15:47;99779.03;;;17.21;65.10
37848;BME280;23688;33.130;-117.188;2022-11-15T00:18:14;99784.06;;;17.10;64.62
37848;BME280;23688;33.130;-117.188;2022-11-15T00:20:41;99786.00;;;17.19;63.84
37848;BME280;23688;33.130;-117.188;2022-11-15T00:23:08;99779.00;;;16.77;64.82
37848;BME280;23688;33.130;-117.188;2022-11-15T00:25:35;99781.34;;;16.63;65.30
37848;BME280;23688;33.130;-117.188;2022-11-15T00:28:02;99785.06;;;16.75;65.12
37848;BME280;23688;33.130;-117.188;2022-11-15T00:30:28;99773.06;;;16.45;61.48
37848;BME280;23688;33.130;-117.188;2022-11-15T00:32:55;99784.91;;;16.27;62.41
37848;BME280;23688;33.130;-117.188;2022-11-15T00:35:21;99795.22;;;16.20;63.54
37848;BME280;23688;33.130;-117.188;2022-11-15T00:37:48;99784.84;;;15.88;66.40
37848;BME280;23688;33.130;-117.188;2022-11-15T00:40:15;99795.03;;;15.77;66.97
37848;BME280;23688;33.130;-117.188;2022-11-15T00:42:41;99785.78;;;15.57;67.79
37848;BME280;23688;33.130;-117.188;2022-11-15T00:45:08;99805.38;;;15.71;67.61
37848;BME280;23688;33.130;-117.188;2022-11-15T00:47:35;99792.06;;;15.63;67.62
37848;BME280;23688;33.130;-117.188;2022-11-15T00:50:04;99793.13;;;15.70;67.68
37848;BME280;23688;33.130;-117.188;2022-11-15T00:52:30;99801.88;;;15.71;67.80
37848;BME280;23688;33.130;-117.188;2022-11-15T00:54:56;99796.66;;;15.72;67.53
37848;BME280;23688;33.130;-117.188;2022-11-15T00:57:22;99793.34;;;15.79;67.27
37848;BME280;23688;33.130;-117.188;2022-11-15T00:59:49;99806.19;;;15.70;68.26
37848;BME280;23688;33.130;-117.188;2022-11-15T01:02:15;99802.44;;;15.94;67.45
37848;BME280;23688;33.130;-117.188;2022-11-15T01:04:41;99804.53;;;16.09;66.38
37848;BME280;23688;33.130;-117.188;2022-11-15T01:07:08;99807.31;;;16.15;65.50
37848;BME280;23688;33.130;-117.188;2022-11-15T01:09:34;99812.56;;;16.15;65.13
37848;BME280;23688;33.130;-117.188;2022-11-15T01:12:00;99808.13;;;16.12;64.75
37848;BME280;23688;33.130;-117.188;2022-11-15T01:14:27;99801.00;;;16.07;65.38
37848;BME280;23688;33.130;-117.188;2022-11-15T01:16:54;99814.13;;;16.08;64.82
37848;BME280;23688;33.130;-117.188;2022-11-15T01:19:20;99806.94;;;15.99;65.39
37848;BME280;23688;33.130;-117.188;2022-11-15T01:21:49;99814.59;;;15.92;66.18
37848;BME280;23688;33.130;-117.188;2022-11-15T01:24:16;99819.72;;;15.87;66.06
37848;BME280;23688;33.130;-117.188;2022-11-15T01:26:42;99815.09;;;15.77;66.16
37848;BME280;23688;33.130;-117.188;2022-11-15T01:29:08;99829.81;;;15.72;66.17
37848;BME280;23688;33.130;-117.188;2022-11-15T01:31:34;99840.09;;;15.66;66.53
37848;BME280;23688;33.130;-117.188;2022-11-15T01:34:00;99821.28;;;15.47;66.80
37848;BME280;23688;33.130;-117.188;2022-11-15T01:36:30;99828.13;;;15.42;66.83
37848;BME280;23688;33.130;-117.188;2022-11-15T01:38:57;99829.41;;;15.26;67.51
37848;BME280;23688;33.130;-117.188;2022-11-15T01:41:27;99833.63;;;15.21;69.21
37848;BME280;23688;33.130;-117.188;2022-11-15T01:43:56;99831.53;;;15.08;69.38
37848;BME280;23688;33.130;-117.188;2022-11-15T01:46:36;99838.38;;;15.04;69.63
37848;BME280;23688;33.130;-117.188;2022-11-15T01:49:11;99836.41;;;14.95;69.73
37848;BME280;23688;33.130;-117.188;2022-11-15T01:51:40;99842.97;;;14.81;69.83
37848;BME280;23688;33.130;-117.188;2022-11-15T01:54:10;99837.28;;;14.66;70.46
37848;BME280;23688;33.130;-117.188;2022-11-15T01:56:52;99835.94;;;14.51;70.74
37848;BME280;23688;33.130;-117.188;2022-11-15T01:59:19;99837.31;;;14.40;71.54
37848;BME280;23688;33.130;-117.188;2022-11-15T02:01:46;99846.00;;;14.39;73.32
37848;BME280;23688;33.130;-117.188;2022-11-15T02:04:19;99846.72;;;14.35;74.24
37848;BME280;23688;33.130;-117.188;2022-11-15T02:06:48;99834.22;;;14.25;76.57
37848;BME280;23688;33.130;-117.188;2022-11-15T02:09:15;99840.09;;;14.18;76.01
37848;BME280;23688;33.130;-117.188;2022-11-15T02:11:44;99837.25;;;14.11;74.91
37848;BME280;23688;33.130;-117.188;2022-11-15T02:14:10;99845.72;;;14.04;74.33
37848;BME280;23688;33.130;-117.188;2022-11-15T02:16:43;99827.91;;;13.91;74.93
37848;BME280;23688;33.130;-117.188;2022-11-15T02:19:37;99846.91;;;13.87;75.26
37848;BME280;23688;33.130;-117.188;2022-11-15T02:22:25;99842.22;;;13.77;75.19
37848;BME280;23688;33.130;-117.188;2022-11-15T02:30:41;99835.31;;;13.53;75.70
37848;BME280;23688;33.130;-117.188;2022-11-15T02:33:20;99829.66;;;13.41;75.88
37848;BME280;23688;33.130;-117.188;2022-11-15T02:36:15;99826.22;;;13.42;76.17
37848;BME280;23688;33.130;-117.188;2022-11-15T02:41:46;99833.56;;;13.28;75.60
37848;BME280;23688;33.130;-117.188;2022-11-15T02:49:34;99823.53;;;13.16;74.02
37848;BME280;23688;33.130;-117.188;2022-11-15T02:52:01;99826.03;;;13.13;73.42
37848;BME280;23688;33.130;-117.188;2022-11-15T02:54:32;99818.56;;;12.98;73.22
37848;BME280;23688;33.130;-117.188;2022-11-15T02:57:02;99818.31;;;12.92;72.71
37848;BME280;23688;33.130;-117.188;2022-11-15T03:03:42;99821.66;;;12.88;72.04
37848;BME280;23688;33.130;-117.188;2022-11-15T03:11:20;99816.34;;;12.85;73.04
37848;BME280;23688;33.130;-117.188;2022-11-15T03:13:56;99828.81;;;12.94;72.21
37848;BME280;23688;33.130;-117.188;2022-11-15T03:16:31;99820.00;;;12.90;71.47
37848;BME280;23688;33.130;-117.188;2022-11-15T03:19:12;99817.06;;;12.82;70.94
37848;BME280;23688;33.130;-117.188;2022-11-15T03:21:40;99810.00;;;12.78;70.72
37848;BME280;23688;33.130;-117.188;2022-11-15T03:24:08;99816.19;;;12.82;70.42
37848;BME280;23688;33.130;-117.188;2022-11-15T03:26:36;99817.06;;;12.82;69.21
37848;BME280;23688;33.130;-117.188;2022-11-15T03:29:26;99810.78;;;12.76;69.78
37848;BME280;23688;33.130;-117.188;2022-11-15T03:31:58;99803.59;;;12.70;69.89
37848;BME280;23688;33.130;-117.188;2022-11-15T03:34:41;99801.75;;;12.68;69.25
37848;BME280;23688;33.130;-117.188;2022-11-15T03:37:12;99807.63;;;12.62;69.34
37848;BME280;23688;33.130;-117.188;2022-11-15T03:39:42;99808.59;;;12.64;69.22
37848;BME280;23688;33.130;-117.188;2022-11-15T03:42:32;99819.81;;;12.63;68.56
37848;BME280;23688;33.130;-117.188;2022-11-15T03:45:26;99809.28;;;12.60;67.80
37848;BME280;23688;33.130;-117.188;2022-11-15T03:48:07;99817.19;;;12.61;67.56
37848;BME280;23688;33.130;-117.188;2022-11-15T03:50:36;99806.59;;;12.57;67.41
37848;BME280;23688;33.130;-117.188;2022-11-15T03:53:03;99802.16;;;12.54;66.96
37848;BME280;23688;33.130;-117.188;2022-11-15T03:55:32;99793.16;;;12.46;66.54
37848;BME280;23688;33.130;-117.188;2022-11-15T03:57:59;99824.81;;;12.57;66.54
37848;BME280;23688;33.130;-117.188;2022-11-15T04:00:26;99823.84;;;12.55;66.15
37848;BME280;23688;33.130;-117.188;2022-11-15T04:02:53;99829.00;;;12.53;66.35
37848;BME280;23688;33.130;-117.188;2022-11-15T04:05:19;99823.31;;;12.41;66.65
37848;BME280;23688;33.130;-117.188;2022-11-15T04:07:46;99827.91;;;12.47;68.48
37848;BME280;23688;33.130;-117.188;2022-11-15T04:10:12;99832.91;;;12.42;69.79
37848;BME280;23688;33.130;-117.188;2022-11-15T04:12:41;99836.28;;;12.39;69.42
37848;BME280;23688;33.130;-117.188;2022-11-15T04:15:11;99823.75;;;12.29;68.76
37848;BME280;23688;33.130;-117.188;2022-11-15T04:17:46;99828.00;;;12.27;68.77
37848;BME280;23688;33.130;-117.188;2022-11-15T04:20:21;99819.81;;;12.18;68.86
37848;BME280;23688;33.130;-117.188;2022-11-15T04:23:14;99828.31;;;12.14;69.31
37848;BME280;23688;33.130;-117.188;2022-11-15T04:26:04;99837.66;;;12.09;69.45
37848;BME280;23688;33.130;-117.188;2022-11-15T04:28:31;99837.63;;;12.07;69.61
37848;BME280;23688;33.130;-117.188;2022-11-15T04:30:57;99834.88;;;12.04;69.39
37848;BME280;23688;33.130;-117.188;2022-11-15T04:33:24;99837.28;;;11.99;68.71
37848;BME280;23688;33.130;-117.188;2022-11-15T04:35:50;99840.59;;;11.95;68.57
37848;BME280;23688;33.130;-117.188;2022-11-15T04:38:35;99841.91;;;11.86;67.74
37848;BME280;23688;33.130;-117.188;2022-11-15T04:41:02;99837.91;;;11.73;67.54
37848;BME280;23688;33.130;-117.188;2022-11-15T04:43:29;99842.31;;;11.54;67.13
37848;BME280;23688;33.130;-117.188;2022-11-15T04:45:56;99836.47;;;11.39;67.28
37848;BME280;23688;33.130;-117.188;2022-11-15T04:48:22;99845.91;;;11.37;67.35
37848;BME280;23688;33.130;-117.188;2022-11-15T04:50:49;99842.41;;;11.37;68.42
37848;BME280;23688;33.130;-117.188;2022-11-15T04:53:16;99844.09;;;11.36;69.96
37848;BME280;23688;33.130;-117.188;2022-11-15T04:55:45;99851.13;;;11.39;71.09
37848;BME280;23688;33.130;-117.188;2022-11-15T05:01:33;99839.72;;;11.35;73.00
37848;BME280;23688;33.130;-117.188;2022-11-15T05:03:59;99839.19;;;11.23;73.05
37848;BME280;23688;33.130;-117.188;2022-11-15T05:06:48;99855.63;;;11.22;72.69
37848;BME280;23688;33.130;-117.188;2022-11-15T05:09:17;99852.94;;;11.20;72.25
37848;BME280;23688;33.130;-117.188;2022-11-15T05:11:43;99861.53;;;11.19;72.38
37848;BME280;23688;33.130;-117.188;2022-11-15T05:14:10;99851.72;;;11.12;72.87
37848;BME280;23688;33.130;-117.188;2022-11-15T05:16:37;99851.31;;;11.03;71.98
37848;BME280;23688;33.130;-117.188;2022-11-15T05:19:04;99868.84;;;10.89;70.92
37848;BME280;23688;33.130;-117.188;2022-11-15T05:21:31;99865.56;;;10.74;70.03
37848;BME280;23688;33.130;-117.188;2022-11-15T05:23:58;99881.59;;;10.65;70.10
37848;BME280;23688;33.130;-117.188;2022-11-15T05:26:25;99868.34;;;10.59;70.73
37848;BME280;23688;33.130;-117.188;2022-11-15T05:28:58;99875.06;;;10.55;71.44
37848;BME280;23688;33.130;-117.188;2022-11-15T05:31:26;99889.41;;;10.47;71.13
37848;BME280;23688;33.130;-117.188;2022-11-15T05:33:53;99891.53;;;10.38;71.92
37848;BME280;23688;33.130;-117.188;2022-11-15T05:36:41;99892.28;;;10.35;72.14
37848;BME280;23688;33.130;-117.188;2022-11-15T05:39:08;99882.16;;;10.23;72.47
37848;BME280;23688;33.130;-117.188;2022-11-15T05:41:41;99883.13;;;10.07;72.99
37848;BME280;23688;33.130;-117.188;2022-11-15T05:44:12;99868.66;;;9.95;72.95
37848;BME280;23688;33.130;-117.188;2022-11-15T05:46:40;99889.56;;;9.98;73.14
37848;BME280;23688;33.130;-117.188;2022-11-15T05:49:10;99892.06;;;9.96;72.88
37848;BME280;23688;33.130;-117.188;2022-11-15T05:51:39;99894.66;;;9.96;73.75
37848;BME280;23688;33.130;-117.188;2022-11-15T05:54:06;99888.69;;;9.97;73.91
37848;BME280;23688;33.130;-117.188;2022-11-15T05:56:32;99893.56;;;9.91;73.63
37848;BME280;23688;33.130;-117.188;2022-11-15T05:58:59;99900.13;;;9.84;73.81
37848;BME280;23688;33.130;-117.188;2022-11-15T06:01:25;99900.63;;;9.77;73.76
37848;BME280;23688;33.130;-117.188;2022-11-15T06:03:52;99898.22;;;9.64;74.38
37848;BME280;23688;33.130;-117.188;2022-11-15T06:06:19;99897.16;;;9.60;74.35
37848;BME280;23688;33.130;-117.188;2022-11-15T06:08:45;99898.22;;;9.64;75.52
37848;BME280;23688;33.130;-117.188;2022-11-15T06:11:13;99886.56;;;9.56;75.58
37848;BME280;23688;33.130;-117.188;2022-11-15T06:13:40;99901.81;;;9.66;75.70
37848;BME280;23688;33.130;-117.188;2022-11-15T06:16:06;99897.66;;;9.70;75.97
37848;BME280;23688;33.130;-117.188;2022-11-15T06:18:34;99903.81;;;9.72;76.31
37848;BME280;23688;33.130;-117.188;2022-11-15T06:21:01;99890.31;;;9.61;76.17
37848;BME280;23688;33.130;-117.188;2022-11-15T06:23:28;99906.25;;;9.69;75.57
37848;BME280;23688;33.130;-117.188;2022-11-15T06:25:57;99895.31;;;9.58;74.14
37848;BME280;23688;33.130;-117.188;2022-11-15T06:28:27;99887.13;;;9.50;74.92
37848;BME280;23688;33.130;-117.188;2022-11-15T06:30:53;99911.69;;;9.57;75.04
37848;BME280;23688;33.130;-117.188;2022-11-15T06:33:20;99901.72;;;9.48;75.08
37848;BME280;23688;33.130;-117.188;2022-11-15T06:35:46;99891.63;;;9.36;74.49
37848;BME280;23688;33.130;-117.188;2022-11-15T06:38:12;99898.25;;;9.31;74.44
37848;BME280;23688;33.130;-117.188;2022-11-15T06:40:39;99908.44;;;9.28;74.50
37848;BME280;23688;33.130;-117.188;2022-11-15T06:43:06;99907.31;;;9.23;75.15
37848;BME280;23688;33.130;-117.188;2022-11-15T06:45:33;99895.81;;;9.18;74.27
37848;BME280;23688;33.130;-117.188;2022-11-15T06:47:59;99907.91;;;9.17;73.63
37848;BME280;23688;33.130;-117.188;2022-11-15T06:50:26;99912.03;;;9.30;73.14
37848;BME280;23688;33.130;-117.188;2022-11-15T06:52:52;99909.03;;;9.39;74.66
37848;BME280;23688;33.130;-117.188;2022-11-15T06:55:20;99915.84;;;9.37;74.66
37848;BME280;23688;33.130;-117.188;2022-11-15T06:57:48;99903.91;;;9.40;75.15
37848;BME280;23688;33.130;-117.188;2022-11-15T07:00:15;99909.19;;;9.42;75.37
37848;BME280;23688;33.130;-117.188;2022-11-15T07:02:42;99914.84;;;9.35;75.57
37848;BME280;23688;33.130;-117.188;2022-11-15T07:05:08;99907.97;;;9.35;74.93
37848;BME280;23688;33.130;-117.188;2022-11-15T07:07:35;99906.50;;;9.24;74.52
37848;BME280;23688;33.130;-117.188;2022-11-15T07:10:01;99915.47;;;9.14;74.25
37848;BME280;23688;33.130;-117.188;2022-11-15T07:12:27;99911.38;;;9.18;74.29
37848;BME280;23688;33.130;-117.188;2022-11-15T07:14:54;99897.78;;;9.22;73.93
37848;BME280;23688;33.130;-117.188;2022-11-15T07:17:20;99904.16;;;9.29;74.11
37848;BME280;23688;33.130;-117.188;2022-11-15T07:19:46;99900.03;;;9.32;74.47
37848;BME280;23688;33.130;-117.188;2022-11-15T07:22:13;99905.22;;;9.32;74.47
37848;BME280;23688;33.130;-117.188;2022-11-15T07:24:39;99909.03;;;9.23;74.72
37848;BME280;23688;33.130;-117.188;2022-11-15T07:27:05;99902.97;;;9.22;74.83
37848;BME280;23688;33.130;-117.188;2022-11-15T07:29:32;99901.25;;;9.23;75.03
37848;BME280;23688;33.130;-117.188;2022-11-15T07:31:58;99897.78;;;9.22;76.03
37848;BME280;23688;33.130;-117.188;2022-11-15T07:34:24;99912.59;;;9.25;76.14
37848;BME280;23688;33.130;-117.188;2022-11-15T07:36:51;99909.81;;;9.21;75.54
37848;BME280;23688;33.130;-117.188;2022-11-15T07:39:17;99918.31;;;9.19;75.85
37848;BME280;23688;33.130;-117.188;2022-11-15T07:41:43;99898.91;;;9.11;76.02
37848;BME280;23688;33.130;-117.188;2022-11-15T07:44:10;99905.13;;;9.14;76.45
37848;BME280;23688;33.130;-117.188;2022-11-15T07:46:37;99907.66;;;9.13;76.44
37848;BME280;23688;33.130;-117.188;2022-11-15T07:49:04;99904.66;;;9.05;77.02
37848;BME280;23688;33.130;-117.188;2022-11-15T07:51:30;99910.47;;;9.01;77.07
37848;BME280;23688;33.130;-117.188;2022-11-15T07:53:56;99904.31;;;8.99;76.98
37848;BME280;23688;33.130;-117.188;2022-11-15T07:56:22;99893.13;;;8.84;77.37
37848;BME280;23688;33.130;-117.188;2022-11-15T07:58:49;99896.28;;;8.78;77.66
37848;BME280;23688;33.130;-117.188;2022-11-15T08:01:15;99905.81;;;8.79;78.08
37848;BME280;23688;33.130;-117.188;2022-11-15T08:03:42;99909.22;;;8.78;78.24
37848;BME280;23688;33.130;-117.188;2022-11-15T08:06:08;99893.72;;;8.63;78.78
37848;BME280;23688;33.130;-117.188;2022-11-15T08:08:34;99910.22;;;8.65;79.03
37848;BME280;23688;33.130;-117.188;2022-11-15T08:11:01;99912.91;;;8.67;79.09
37848;BME280;23688;33.130;-117.188;2022-11-15T08:13:27;99904.06;;;8.63;79.09
37848;BME280;23688;33.130;-117.188;2022-11-15T08:16:04;99897.63;;;8.71;79.04
37848;BME280;23688;33.130;-117.188;2022-11-15T08:18:31;99902.34;;;8.78;79.09
37848;BME280;23688;33.130;-117.188;2022-11-15T08:21:01;99899.81;;;8.80;79.36
37848;BME280;23688;33.130;-117.188;2022-11-15T08:23:27;99901.69;;;8.83;78.89
37848;BME280;23688;33.130;-117.188;2022-11-15T08:26:02;99906.22;;;8.87;78.98
37848;BME280;23688;33.130;-117.188;2022-11-15T08:28:29;99910.44;;;8.85;78.44
37848;BME280;23688;33.130;-117.188;2022-11-15T08:30:55;99912.75;;;8.80;78.04
37848;BME280;23688;33.130;-117.188;2022-11-15T08:33:22;99912.28;;;8.71;78.06
37848;BME280;23688;33.130;-117.188;2022-11-15T08:35:48;99915.59;;;8.68;78.10
37848;BME280;23688;33.130;-117.188;2022-11-15T08:38:14;99913.78;;;8.67;78.77
37848;BME280;23688;33.130;-117.188;2022-11-15T08:40:41;99907.63;;;8.65;78.52
37848;BME280;23688;33.130;-117.188;2022-11-15T08:43:09;99909.25;;;8.63;78.43
37848;BME280;23688;33.130;-117.188;2022-11-15T08:45:35;99909.00;;;8.59;78.21
37848;BME280;23688;33.130;-117.188;2022-11-15T08:48:03;99914.00;;;8.55;78.37
37848;BME280;23688;33.130;-117.188;2022-11-15T08:50:30;99913.72;;;8.51;78.41
37848;BME280;23688;33.130;-117.188;2022-11-15T08:52:56;99916.41;;;8.52;78.29
37848;BME280;23688;33.130;-117.188;2022-11-15T08:55:22;99921.59;;;8.52;77.46
37848;BME280;23688;33.130;-117.188;2022-11-15T08:57:49;99921.69;;;8.54;77.72
37848;BME280;23688;33.130;-117.188;2022-11-15T09:00:16;99919.88;;;8.53;77.72
37848;BME280;23688;33.130;-117.188;2022-11-15T09:02:43;99920.81;;;8.53;77.61
37848;BME280;23688;33.130;-117.188;2022-11-15T09:05:09;99916.41;;;8.52;77.78
37848;BME280;23688;33.130;-117.188;2022-11-15T09:07:35;99918.03;;;8.50;77.79
37848;BME280;23688;33.130;-117.188;2022-11-15T09:10:02;99925.97;;;8.53;77.35
37848;BME280;23688;33.130;-117.188;2022-11-15T09:12:28;99915.44;;;8.50;77.97
37848;BME280;23688;33.130;-117.188;2022-11-15T09:14:55;99918.38;;;8.56;78.38
37848;BME280;23688;33.130;-117.188;2022-11-15T09:17:21;99918.44;;;8.58;78.20
37848;BME280;23688;33.130;-117.188;2022-11-15T09:19:48;99911.88;;;8.48;77.50
37848;BME280;23688;33.130;-117.188;2022-11-15T09:22:14;99915.53;;;8.52;77.09
37848;BME280;23688;33.130;-117.188;2022-11-15T09:24:41;99923.41;;;8.53;76.98
37848;BME280;23688;33.130;-117.188;2022-11-15T09:27:07;99921.59;;;8.52;76.61
37848;BME280;23688;33.130;-117.188;2022-11-15T09:29:34;99910.25;;;8.50;77.18
37848;BME280;23688;33.130;-117.188;2022-11-15T09:32:00;99905.19;;;8.52;77.20
37848;BME280;23688;33.130;-117.188;2022-11-15T09:34:27;99903.84;;;8.59;76.90
37848;BME280;23688;33.130;-117.188;2022-11-15T09:36:55;99902.75;;;8.55;76.91
37848;BME280;23688;33.130;-117.188;2022-11-15T09:39:22;99900.34;;;8.58;76.89
37848;BME280;23688;33.130;-117.188;2022-11-15T09:42:13;99902.13;;;8.59;76.72
37848;BME280;23688;33.130;-117.188;2022-11-15T09:45:20;99905.59;;;8.60;76.66
37848;BME280;23688;33.130;-117.188;2022-11-15T09:53:38;99893.22;;;8.54;75.81
37848;BME280;23688;33.130;-117.188;2022-11-15T09:56:29;99893.28;;;8.55;75.18
37848;BME280;23688;33.130;-117.188;2022-11-15T10:04:37;99885.94;;;8.47;75.59
37848;BME280;23688;33.130;-117.188;2022-11-15T10:09:54;99872.63;;;8.41;75.37
37848;BME280;23688;33.130;-117.188;2022-11-15T10:12:23;99883.88;;;8.41;75.04
37848;BME280;23688;33.130;-117.188;2022-11-15T10:14:58;99880.28;;;8.39;75.36
37848;BME280;23688;33.130;-117.188;2022-11-15T10:22:59;99875.56;;;8.32;75.58
37848;BME280;23688;33.130;-117.188;2022-11-15T10:25:32;99877.34;;;8.33;75.79
37848;BME280;23688;33.130;-117.188;2022-11-15T10:27:59;99870.41;;;8.32;75.13
37848;BME280;23688;33.130;-117.188;2022-11-15T10:30:35;99847.88;;;8.14;75.19
37848;BME280;23688;33.130;-117.188;2022-11-15T10:35:48;99864.91;;;8.11;76.07
37848;BME280;23688;33.130;-117.188;2022-11-15T10:39:01;99857.50;;;8.17;75.37
37848;BME280;23688;33.130;-117.188;2022-11-15T10:41:34;99844.38;;;8.14;75.13
37848;BME280;23688;33.130;-117.188;2022-11-15T10:46:48;99837.03;;;8.22;73.63
37848;BME280;23688;33.130;-117.188;2022-11-15T10:51:48;99849.06;;;8.36;72.67
37848;BME280;23688;33.130;-117.188;2022-11-15T10:54:45;99845.59;;;8.35;71.91
37848;BME280;23688;33.130;-117.188;2022-11-15T10:57:22;99845.06;;;8.41;71.96
37848;BME280;23688;33.130;-117.188;2022-11-15T11:00:03;99844.16;;;8.41;71.96
37848;BME280;23688;33.130;-117.188;2022-11-15T11:02:36;99847.91;;;8.46;71.43
37848;BME280;23688;33.130;-117.188;2022-11-15T11:05:37;99841.84;;;8.45;70.95
37848;BME280;23688;33.130;-117.188;2022-11-15T11:08:19;99842.00;;;8.48;70.50
37848;BME280;23688;33.130;-117.188;2022-11-15T11:10:57;99836.81;;;8.48;69.79
37848;BME280;23688;33.130;-117.188;2022-11-15T11:13:28;99832.63;;;8.50;69.41
37848;BME280;23688;33.130;-117.188;2022-11-15T11:25:11;99822.28;;;8.50;70.24
37848;BME280;23688;33.130;-117.188;2022-11-15T11:30:21;99824.59;;;8.46;70.75
37848;BME280;23688;33.130;-117.188;2022-11-15T11:38:30;99834.50;;;8.38;69.32
37848;BME280;23688;33.130;-117.188;2022-11-15T11:47:19;99823.31;;;8.23;69.15
37848;BME280;23688;33.130;-117.188;2022-11-15T11:49:54;99846.75;;;8.26;69.41
37848;BME280;23688;33.130;-117.188;2022-11-15T11:52:34;99839.31;;;8.15;69.79
37848;BME280;23688;33.130;-117.188;2022-11-15T11:58:13;99841.16;;;8.18;69.70
37848;BME280;23688;33.130;-117.188;2022-11-15T12:16:52;99866.59;;;8.10;71.02
37848;BME280;23688;33.130;-117.188;2022-11-15T12:19:18;99850.66;;;8.03;71.20
37848;BME280;23688;33.130;-117.188;2022-11-15T12:24:24;99859.72;;;8.11;71.52
37848;BME280;23688;33.130;-117.188;2022-11-15T12:29:52;99867.31;;;8.08;72.21
37848;BME280;23688;33.130;-117.188;2022-11-15T12:34:55;99871.63;;;7.92;72.75
37848;BME280;23688;33.130;-117.188;2022-11-15T12:45:50;99879.72;;;7.54;74.26
37848;BME280;23688;33.130;-117.188;2022-11-15T12:58:53;99870.53;;;7.44;73.90
37848;BME280;23688;33.130;-117.188;2022-11-15T13:04:21;99861.88;;;7.44;74.66
37848;BME280;23688;33.130;-117.188;2022-11-15T13:06:56;99857.94;;;7.36;75.10
37848;BME280;23688;33.130;-117.188;2022-11-15T13:12:03;99855.53;;;7.39;74.76
37848;BME280;23688;33.130;-117.188;2022-11-15T13:14:44;99853.41;;;7.46;72.08
37848;BME280;23688;33.130;-117.188;2022-11-15T13:20:27;99857.50;;;7.58;71.54
37848;BME280;23688;33.130;-117.188;2022-11-15T13:23:11;99862.06;;;7.62;71.36
37848;BME280;23688;33.130;-117.188;2022-11-15T13:28:33;99856.00;;;7.76;70.47
37848;BME280;23688;33.130;-117.188;2022-11-15T13:31:24;99868.06;;;7.76;71.47
37848;BME280;23688;33.130;-117.188;2022-11-15T13:33:52;99878.38;;;7.76;71.39
37848;BME280;23688;33.130;-117.188;2022-11-15T13:36:28;99857.16;;;7.66;72.15
37848;BME280;23688;33.130;-117.188;2022-11-15T13:38:57;99862.25;;;7.65;72.31
37848;BME280;23688;33.130;-117.188;2022-11-15T13:41:34;99859.22;;;7.57;72.86
37848;BME280;23688;33.130;-117.188;2022-11-15T13:44:01;99864.81;;;7.50;73.00
37848;BME280;23688;33.130;-117.188;2022-11-15T13:46:32;99872.81;;;7.40;74.05
37848;BME280;23688;33.130;-117.188;2022-11-15T13:49:03;99852.22;;;7.26;73.92
37848;BME280;23688;33.130;-117.188;2022-11-15T13:51:37;99873.97;;;7.30;73.88
37848;BME280;23688;33.130;-117.188;2022-11-15T13:56:55;99872.88;;;7.26;73.72
37848;BME280;23688;33.130;-117.188;2022-11-15T13:59:34;99863.41;;;7.12;74.52
37848;BME280;23688;33.130;-117.188;2022-11-15T14:02:10;99874.28;;;7.21;74.11
37848;BME280;23688;33.130;-117.188;2022-11-15T14:04:39;99877.06;;;7.24;73.21
37848;BME280;23688;33.130;-117.188;2022-11-15T14:07:20;99876.38;;;7.27;73.32
37848;BME280;23688;33.130;-117.188;2022-11-15T14:09:47;99870.66;;;7.33;72.63
37848;BME280;23688;33.130;-117.188;2022-11-15T14:14:48;99866.66;;;7.38;72.34
37848;BME280;23688;33.130;-117.188;2022-11-15T14:17:34;99864.97;;;7.38;72.96
37848;BME280;23688;33.130;-117.188;2022-11-15T14:20:01;99863.91;;;7.35;73.13
37848;BME280;23688;33.130;-117.188;2022-11-15T14:22:29;99864.91;;;7.37;73.04
37848;BME280;23688;33.130;-117.188;2022-11-15T14:27:42;99876.28;;;7.40;72.50
37848;BME280;23688;33.130;-117.188;2022-11-15T14:30:16;99882.44;;;7.42;72.09
37848;BME280;23688;33.130;-117.188;2022-11-15T14:32:48;99878.16;;;7.43;71.43
37848;BME280;23688;33.130;-117.188;2022-11-15T14:35:20;99873.16;;;7.31;71.38
37848;BME280;23688;33.130;-117.188;2022-11-15T14:37:47;99880.28;;;7.35;71.76
37848;BME280;23688;33.130;-117.188;2022-11-15T14:40:16;99873.06;;;7.29;72.37
37848;BME280;23688;33.130;-117.188;2022-11-15T14:42:47;99883.59;;;7.33;72.90
37848;BME280;23688;33.130;-117.188;2022-11-15T14:45:16;99882.97;;;7.37;72.76
37848;BME280;23688;33.130;-117.188;2022-11-15T14:47:43;99881.34;;;7.39;72.65
37848;BME280;23688;33.130;-117.188;2022-11-15T14:50:15;99888.44;;;7.41;72.52
37848;BME280;23688;33.130;-117.188;2022-11-15T14:52:42;99884.16;;;7.42;72.41
37848;BME280;23688;33.130;-117.188;2022-11-15T14:55:20;99887.06;;;7.48;71.96
37848;BME280;23688;33.130;-117.188;2022-11-15T14:57:47;99883.06;;;7.53;70.99
37848;BME280;23688;33.130;-117.188;2022-11-15T15:00:14;99892.38;;;7.64;70.48
37848;BME280;23688;33.130;-117.188;2022-11-15T15:02:42;99883.00;;;7.66;70.37
37848;BME280;23688;33.130;-117.188;2022-11-15T15:05:25;99895.84;;;7.80;69.37
37848;BME280;23688;33.130;-117.188;2022-11-15T15:07:52;99885.00;;;7.85;69.15
37848;BME280;23688;33.130;-117.188;2022-11-15T15:10:19;99882.84;;;7.93;68.12
37848;BME280;23688;33.130;-117.188;2022-11-15T15:12:45;99891.38;;;8.07;68.89
37848;BME280;23688;33.130;-117.188;2022-11-15T15:15:14;99889.31;;;8.16;69.14